sensor_id;sensor_type;location;lat;lon;timestamp;temperature;humidity
16643;DHT22;8435;52.184;5.406;2022-12-26T00:01:26;12.30;99.90
16643;DHT22;8435;52.184;5.406;2022-12-26T00:03:53;12.30;99.90
16643;DHT22;8435;52.184;5.406;2022-12-26T00:06:22;12.30;99.90
16643;DHT22;8435;52.184;5.406;2022-12-26T00:08:50;12.30;99.90
16643;DHT22;8435;52.184;5.406;2022-12-26T00:11:18;12.30;99.90
16643;DHT22;8435;52.184;5.406;2022-12-26T00:13:45;12.30;99.90
16643;DHT22;8435;52.184;5.406;2022-12-26T00:16:13;12.30;99.90
16643;DHT22;8435;52.184;5.406;2022-12-26T00:18:40;12.30;99.90
16643;DHT22;8435;52.184;5.406;2022-12-26T00:21:09;12.30;99.90
16643;DHT22;8435;52.184;5.406;2022-12-26T00:23:37;12.30;99.90
16643;DHT22;8435;52.184;5.406;2022-12-26T00:26:05;12.20;99.90
16643;DHT22;8435;52.184;5.406;2022-12-26T00:28:34;12.30;99.90
16643;DHT22;8435;52.184;5.406;2022-12-26T00:31:03;12.30;99.90
16643;DHT22;8435;52.184;5.406;2022-12-26T00:33:30;12.20;99.90
16643;DHT22;8435;52.184;5.406;2022-12-26T00:36:00;12.20;99.90
16643;DHT22;8435;52.184;5.406;2022-12-26T00:38:27;12.30;99.90
16643;DHT22;8435;52.184;5.406;2022-12-26T00:40:53;12.30;99.90
16643;DHT22;8435;52.184;5.406;2022-12-26T00:43:20;12.30;99.90
16643;DHT22;8435;52.184;5.406;2022-12-26T00:45:48;12.30;99.90
16643;DHT22;8435;52.184;5.406;2022-12-26T00:48:15;12.30;99.90
16643;DHT22;8435;52.184;5.406;2022-12-26T00:50:42;12.30;99.90
16643;DHT22;8435;52.184;5.406;2022-12-26T00:53:08;12.30;99.90
16643;DHT22;8435;52.184;5.406;2022-12-26T00:55:35;12.20;99.90
16643;DHT22;8435;52.184;5.406;2022-12-26T00:58:02;12.30;99.90
16643;DHT22;8435;52.184;5.406;2022-12-26T01:00:29;12.30;99.90
16643;DHT22;8435;52.184;5.406;2022-12-26T01:02:57;12.30;99.90
16643;DHT22;8435;52.184;5.406;2022-12-26T01:05:24;12.30;99.90
16643;DHT22;8435;52.184;5.406;2022-12-26T01:07:51;12.30;99.90
16643;DHT22;8435;52.184;5.406;2022-12-26T01:10:18;12.30;99.90
16643;DHT22;8435;52.184;5.406;2022-12-26T01:12:44;12.20;99.90
16643;DHT22;8435;52.184;5.406;2022-12-26T01:15:11;12.20;99.90
16643;DHT22;8435;52.184;5.406;2022-12-26T01:17:38;12.20;99.90
16643;DHT22;8435;52.184;5.406;2022-12-26T01:20:07;12.20;99.90
16643;DHT22;8435;52.184;5.406;2022-12-26T01:22:34;12.20;99.90
16643;DHT22;8435;52.184;5.406;2022-12-26T01:25:02;12.20;99.90
16643;DHT22;8435;52.184;5.406;2022-12-26T01:27:31;12.20;99.90
16643;DHT22;8435;52.184;5.406;2022-12-26T01:29:58;12.20;99.90
16643;DHT22;8435;52.184;5.406;2022-12-26T01:32:24;12.20;99.90
16643;DHT22;8435;52.184;5.406;2022-12-26T01:34:51;12.20;99.90
16643;DHT22;8435;52.184;5.406;2022-12-26T01:37:21;12.20;99.90
16643;DHT22;8435;52.184;5.406;2022-12-26T01:39:51;12.20;99.90
16643;DHT22;8435;52.184;5.406;2022-12-26T01:42:20;12.20;99.90
16643;DHT22;8435;52.184;5.406;2022-12-26T01:45:05;12.20;99.90
16643;DHT22;8435;52.184;5.406;2022-12-26T01:47:41;12.20;99.90
16643;DHT22;8435;52.184;5.406;2022-12-26T01:50:22;12.20;99.90
16643;DHT22;8435;52.184;5.406;2022-12-26T01:52:52;12.20;99.90
16643;DHT22;8435;52.184;5.406;2022-12-26T01:55:20;12.20;99.90
16643;DHT22;8435;52.184;5.406;2022-12-26T01:57:51;12.30;99.90
16643;DHT22;8435;52.184;5.406;2022-12-26T02:00:20;12.20;99.90
16643;DHT22;8435;52.184;5.406;2022-12-26T02:02:47;12.30;99.90
16643;DHT22;8435;52.184;5.406;2022-12-26T02:05:48;12.30;99.90
16643;DHT22;8435;52.184;5.406;2022-12-26T02:08:18;12.30;99.90
16643;DHT22;8435;52.184;5.406;2022-12-26T02:10:48;12.30;99.90
16643;DHT22;8435;52.184;5.406;2022-12-26T02:13:16;12.30;99.90
16643;DHT22;8435;52.184;5.406;2022-12-26T02:15:44;12.20;99.90
16643;DHT22;8435;52.184;5.406;2022-12-26T02:18:11;12.30;99.90
16643;DHT22;8435;52.184;5.406;2022-12-26T02:20:42;12.20;99.90
16643;DHT22;8435;52.184;5.406;2022-12-26T02:29:55;12.20;99.90
16643;DHT22;8435;52.184;5.406;2022-12-26T02:32:32;12.20;99.90
16643;DHT22;8435;52.184;5.406;2022-12-26T02:35:06;12.30;99.90
16643;DHT22;8435;52.184;5.406;2022-12-26T02:37:48;12.20;99.90
16643;DHT22;8435;52.184;5.406;2022-12-26T02:40:40;12.20;99.90
16643;DHT22;8435;52.184;5.406;2022-12-26T02:43:17;12.30;99.90
16643;DHT22;8435;52.184;5.406;2022-12-26T02:45:51;12.20;99.90
16643;DHT22;8435;52.184;5.406;2022-12-26T02:48:44;12.20;99.90
16643;DHT22;8435;52.184;5.406;2022-12-26T02:51:20;12.20;99.90
16643;DHT22;8435;52.184;5.406;2022-12-26T02:54:14;12.20;99.90
16643;DHT22;8435;52.184;5.406;2022-12-26T02:57:03;12.20;99.90
16643;DHT22;8435;52.184;5.406;2022-12-26T03:00:02;12.10;99.90
16643;DHT22;8435;52.184;5.406;2022-12-26T03:02:51;12.10;99.90
16643;DHT22;8435;52.184;5.406;2022-12-26T03:05:40;12.10;99.90
16643;DHT22;8435;52.184;5.406;2022-12-26T03:08:28;12.10;99.90
16643;DHT22;8435;52.184;5.406;2022-12-26T03:11:14;12.00;99.90
16643;DHT22;8435;52.184;5.406;2022-12-26T03:14:04;12.00;99.90
16643;DHT22;8435;52.184;5.406;2022-12-26T03:16:32;11.90;99.90
16643;DHT22;8435;52.184;5.406;2022-12-26T03:19:17;12.00;99.90
16643;DHT22;8435;52.184;5.406;2022-12-26T03:21:46;11.90;99.90
16643;DHT22;8435;52.184;5.406;2022-12-26T03:24:16;11.90;99.90
16643;DHT22;8435;52.184;5.406;2022-12-26T03:26:48;11.90;99.90
16643;DHT22;8435;52.184;5.406;2022-12-26T03:29:17;11.90;99.90
16643;DHT22;8435;52.184;5.406;2022-12-26T03:32:16;11.90;99.90
16643;DHT22;8435;52.184;5.406;2022-12-26T03:34:43;11.90;99.90
16643;DHT22;8435;52.184;5.406;2022-12-26T03:37:31;11.90;99.90
16643;DHT22;8435;52.184;5.406;2022-12-26T03:40:10;11.90;99.90
16643;DHT22;8435;52.184;5.406;2022-12-26T03:43:04;11.90;99.90
16643;DHT22;8435;52.184;5.406;2022-12-26T03:45:56;11.90;99.90
16643;DHT22;8435;52.184;5.406;2022-12-26T03:48:51;11.90;99.90
16643;DHT22;8435;52.184;5.406;2022-12-26T03:51:45;11.90;99.90
16643;DHT22;8435;52.184;5.406;2022-12-26T03:54:42;11.90;99.90
16643;DHT22;8435;52.184;5.406;2022-12-26T03:57:32;11.90;99.90
16643;DHT22;8435;52.184;5.406;2022-12-26T04:00:18;11.90;99.90
16643;DHT22;8435;52.184;5.406;2022-12-26T04:03:06;11.90;99.90
16643;DHT22;8435;52.184;5.406;2022-12-26T04:05:52;11.80;99.90
16643;DHT22;8435;52.184;5.406;2022-12-26T04:08:43;11.90;99.90
16643;DHT22;8435;52.184;5.406;2022-12-26T04:11:31;11.90;99.90
16643;DHT22;8435;52.184;5.406;2022-12-26T04:14:22;11.90;99.90
16643;DHT22;8435;52.184;5.406;2022-12-26T04:17:16;11.90;99.90
16643;DHT22;8435;52.184;5.406;2022-12-26T04:20:13;11.80;99.90
16643;DHT22;8435;52.184;5.406;2022-12-26T04:22:46;11.80;99.90
16643;DHT22;8435;52.184;5.406;2022-12-26T04:25:34;11.80;99.90
16643;DHT22;8435;52.184;5.406;2022-12-26T04:28:20;11.80;99.90
16643;DHT22;8435;52.184;5.406;2022-12-26T04:31:09;11.70;99.90
16643;DHT22;8435;52.184;5.406;2022-12-26T04:33:57;11.70;99.90
16643;DHT22;8435;52.184;5.406;2022-12-26T04:36:48;11.70;99.90
16643;DHT22;8435;52.184;5.406;2022-12-26T04:39:34;11.70;99.90
16643;DHT22;8435;52.184;5.406;2022-12-26T04:42:21;11.70;99.90
16643;DHT22;8435;52.184;5.406;2022-12-26T04:45:09;11.70;99.90
16643;DHT22;8435;52.184;5.406;2022-12-26T04:47:37;11.70;99.90
16643;DHT22;8435;52.184;5.406;2022-12-26T04:50:24;11.60;99.90
16643;DHT22;8435;52.184;5.406;2022-12-26T04:52:50;11.60;99.90
16643;DHT22;8435;52.184;5.406;2022-12-26T04:55:26;11.60;99.90
16643;DHT22;8435;52.184;5.406;2022-12-26T04:57:56;11.60;99.90
16643;DHT22;8435;52.184;5.406;2022-12-26T05:00:26;11.60;99.90
16643;DHT22;8435;52.184;5.406;2022-12-26T05:02:53;11.50;99.90
16643;DHT22;8435;52.184;5.406;2022-12-26T05:05:43;11.40;99.90
16643;DHT22;8435;52.184;5.406;2022-12-26T05:08:36;11.50;99.90
16643;DHT22;8435;52.184;5.406;2022-12-26T05:11:20;11.50;99.90
16643;DHT22;8435;52.184;5.406;2022-12-26T05:13:47;11.40;99.90
16643;DHT22;8435;52.184;5.406;2022-12-26T05:16:15;11.40;99.90
16643;DHT22;8435;52.184;5.406;2022-12-26T05:18:59;11.40;99.90
16643;DHT22;8435;52.184;5.406;2022-12-26T05:21:44;11.40;99.90
16643;DHT22;8435;52.184;5.406;2022-12-26T05:24:32;11.40;99.90
16643;DHT22;8435;52.184;5.406;2022-12-26T05:27:17;11.30;99.90
16643;DHT22;8435;52.184;5.406;2022-12-26T05:30:06;11.40;99.90
16643;DHT22;8435;52.184;5.406;2022-12-26T05:32:34;11.30;99.90
16643;DHT22;8435;52.184;5.406;2022-12-26T05:35:18;11.30;99.90
16643;DHT22;8435;52.184;5.406;2022-12-26T05:37:45;11.30;99.90
16643;DHT22;8435;52.184;5.406;2022-12-26T05:40:12;11.30;99.90
16643;DHT22;8435;52.184;5.406;2022-12-26T05:42:39;11.30;99.90
16643;DHT22;8435;52.184;5.406;2022-12-26T05:45:06;11.20;99.90
16643;DHT22;8435;52.184;5.406;2022-12-26T05:47:34;11.20;99.90
16643;DHT22;8435;52.184;5.406;2022-12-26T05:50:01;11.20;99.90
16643;DHT22;8435;52.184;5.406;2022-12-26T05:52:28;11.20;99.90
16643;DHT22;8435;52.184;5.406;2022-12-26T05:54:55;11.20;99.90
16643;DHT22;8435;52.184;5.406;2022-12-26T05:57:21;11.20;99.90
16643;DHT22;8435;52.184;5.406;2022-12-26T05:59:51;11.20;99.90
16643;DHT22;8435;52.184;5.406;2022-12-26T06:02:18;11.10;99.90
16643;DHT22;8435;52.184;5.406;2022-12-26T06:04:46;11.20;99.90
16643;DHT22;8435;52.184;5.406;2022-12-26T06:07:12;11.10;99.90
16643;DHT22;8435;52.184;5.406;2022-12-26T06:09:39;11.20;99.90
16643;DHT22;8435;52.184;5.406;2022-12-26T06:12:06;11.10;99.90
16643;DHT22;8435;52.184;5.406;2022-12-26T06:14:33;11.10;99.90
16643;DHT22;8435;52.184;5.406;2022-12-26T06:16:59;11.10;99.90
16643;DHT22;8435;52.184;5.406;2022-12-26T06:19:26;11.10;99.90
16643;DHT22;8435;52.184;5.406;2022-12-26T06:21:54;11.00;99.90
16643;DHT22;8435;52.184;5.406;2022-12-26T06:24:21;11.00;99.90
16643;DHT22;8435;52.184;5.406;2022-12-26T06:26:48;11.00;99.90
16643;DHT22;8435;52.184;5.406;2022-12-26T06:29:15;11.00;99.90
16643;DHT22;8435;52.184;5.406;2022-12-26T06:31:41;11.10;99.90
16643;DHT22;8435;52.184;5.406;2022-12-26T06:34:10;11.00;99.90
16643;DHT22;8435;52.184;5.406;2022-12-26T06:36:38;11.00;99.90
16643;DHT22;8435;52.184;5.406;2022-12-26T06:39:06;11.00;99.90
16643;DHT22;8435;52.184;5.406;2022-12-26T06:41:33;11.00;99.90
16643;DHT22;8435;52.184;5.406;2022-12-26T06:43:59;11.00;99.90
16643;DHT22;8435;52.184;5.406;2022-12-26T06:46:26;11.00;99.90
16643;DHT22;8435;52.184;5.406;2022-12-26T06:48:53;11.00;99.90
16643;DHT22;8435;52.184;5.406;2022-12-26T06:51:22;11.00;99.90
16643;DHT22;8435;52.184;5.406;2022-12-26T06:53:50;11.00;99.90
16643;DHT22;8435;52.184;5.406;2022-12-26T06:56:19;11.00;99.90
16643;DHT22;8435;52.184;5.406;2022-12-26T06:58:47;11.00;99.90
16643;DHT22;8435;52.184;5.406;2022-12-26T07:01:18;11.00;99.90
16643;DHT22;8435;52.184;5.406;2022-12-26T07:03:45;11.00;99.90
16643;DHT22;8435;52.184;5.406;2022-12-26T07:06:16;11.00;99.90
16643;DHT22;8435;52.184;5.406;2022-12-26T07:08:46;11.00;99.90
16643;DHT22;8435;52.184;5.406;2022-12-26T07:11:13;11.10;99.90
16643;DHT22;8435;52.184;5.406;2022-12-26T07:13:41;11.00;99.90
16643;DHT22;8435;52.184;5.406;2022-12-26T07:16:08;11.10;99.90
16643;DHT22;8435;52.184;5.406;2022-12-26T07:18:35;11.10;99.90
16643;DHT22;8435;52.184;5.406;2022-12-26T07:21:04;11.20;99.90
16643;DHT22;8435;52.184;5.406;2022-12-26T07:23:31;11.20;99.90
16643;DHT22;8435;52.184;5.406;2022-12-26T07:25:58;11.20;99.90
16643;DHT22;8435;52.184;5.406;2022-12-26T07:28:25;11.20;99.90
16643;DHT22;8435;52.184;5.406;2022-12-26T07:30:54;11.20;99.90
16643;DHT22;8435;52.184;5.406;2022-12-26T07:33:22;11.10;99.90
16643;DHT22;8435;52.184;5.406;2022-12-26T07:35:49;11.20;99.90
16643;DHT22;8435;52.184;5.406;2022-12-26T07:38:16;11.20;99.90
16643;DHT22;8435;52.184;5.406;2022-12-26T07:40:42;11.20;99.90
16643;DHT22;8435;52.184;5.406;2022-12-26T07:43:09;11.20;99.90
16643;DHT22;8435;52.184;5.406;2022-12-26T07:45:36;11.20;99.90
16643;DHT22;8435;52.184;5.406;2022-12-26T07:48:06;11.20;99.90
16643;DHT22;8435;52.184;5.406;2022-12-26T07:50:34;11.20;99.90
16643;DHT22;8435;52.184;5.406;2022-12-26T07:53:01;11.20;99.90
16643;DHT22;8435;52.184;5.406;2022-12-26T07:55:28;11.20;99.90
16643;DHT22;8435;52.184;5.406;2022-12-26T07:57:54;11.20;99.90
16643;DHT22;8435;52.184;5.406;2022-12-26T08:00:21;11.20;99.90
16643;DHT22;8435;52.184;5.406;2022-12-26T08:02:49;11.20;99.90
16643;DHT22;8435;52.184;5.406;2022-12-26T08:05:23;11.20;99.90
16643;DHT22;8435;52.184;5.406;2022-12-26T08:07:50;11.20;99.90
16643;DHT22;8435;52.184;5.406;2022-12-26T08:10:17;11.20;99.90
16643;DHT22;8435;52.184;5.406;2022-12-26T08:12:43;11.20;99.90
16643;DHT22;8435;52.184;5.406;2022-12-26T08:15:11;11.30;99.90
16643;DHT22;8435;52.184;5.406;2022-12-26T08:17:38;11.30;99.90
16643;DHT22;8435;52.184;5.406;2022-12-26T08:20:06;11.30;99.90
16643;DHT22;8435;52.184;5.406;2022-12-26T08:22:34;11.40;99.90
16643;DHT22;8435;52.184;5.406;2022-12-26T08:25:00;11.40;99.90
16643;DHT22;8435;52.184;5.406;2022-12-26T08:27:27;11.40;99.90
16643;DHT22;8435;52.184;5.406;2022-12-26T08:29:54;11.50;99.90
16643;DHT22;8435;52.184;5.406;2022-12-26T08:32:21;11.50;99.90
16643;DHT22;8435;52.184;5.406;2022-12-26T08:34:48;11.50;99.90
16643;DHT22;8435;52.184;5.406;2022-12-26T08:37:14;11.50;99.90
16643;DHT22;8435;52.184;5.406;2022-12-26T08:39:44;11.60;99.90
16643;DHT22;8435;52.184;5.406;2022-12-26T08:42:11;11.60;99.90
16643;DHT22;8435;52.184;5.406;2022-12-26T08:44:38;11.60;99.90
16643;DHT22;8435;52.184;5.406;2022-12-26T08:47:05;11.70;99.90
16643;DHT22;8435;52.184;5.406;2022-12-26T08:49:31;11.70;99.90
16643;DHT22;8435;52.184;5.406;2022-12-26T08:51:58;11.70;99.90
16643;DHT22;8435;52.184;5.406;2022-12-26T08:54:25;11.80;99.90
16643;DHT22;8435;52.184;5.406;2022-12-26T08:56:53;11.80;99.90
16643;DHT22;8435;52.184;5.406;2022-12-26T08:59:20;11.80;99.90
16643;DHT22;8435;52.184;5.406;2022-12-26T09:01:47;11.80;99.90
16643;DHT22;8435;52.184;5.406;2022-12-26T09:04:14;11.90;99.90
16643;DHT22;8435;52.184;5.406;2022-12-26T09:06:41;11.90;99.90
16643;DHT22;8435;52.184;5.406;2022-12-26T09:09:09;11.90;99.90
16643;DHT22;8435;52.184;5.406;2022-12-26T09:11:37;11.90;99.90
16643;DHT22;8435;52.184;5.406;2022-12-26T09:14:06;11.80;99.90
16643;DHT22;8435;52.184;5.406;2022-12-26T09:16:38;11.90;99.90
16643;DHT22;8435;52.184;5.406;2022-12-26T09:19:09;11.90;99.90
16643;DHT22;8435;52.184;5.406;2022-12-26T09:21:36;11.90;99.90
16643;DHT22;8435;52.184;5.406;2022-12-26T09:24:04;12.00;99.90
16643;DHT22;8435;52.184;5.406;2022-12-26T09:26:32;11.90;99.90
16643;DHT22;8435;52.184;5.406;2022-12-26T09:28:59;12.00;99.90
16643;DHT22;8435;52.184;5.406;2022-12-26T09:31:29;12.00;99.90
16643;DHT22;8435;52.184;5.406;2022-12-26T09:33:56;11.90;99.90
16643;DHT22;8435;52.184;5.406;2022-12-26T09:36:26;12.00;99.90
16643;DHT22;8435;52.184;5.406;2022-12-26T09:38:55;12.00;99.90
16643;DHT22;8435;52.184;5.406;2022-12-26T09:41:36;12.00;99.90
16643;DHT22;8435;52.184;5.406;2022-12-26T09:44:08;12.00;99.90
16643;DHT22;8435;52.184;5.406;2022-12-26T09:46:46;12.00;99.90
16643;DHT22;8435;52.184;5.406;2022-12-26T09:49:17;12.00;99.90
16643;DHT22;8435;52.184;5.406;2022-12-26T09:51:48;11.90;99.90
16643;DHT22;8435;52.184;5.406;2022-12-26T09:54:21;11.90;99.90
16643;DHT22;8435;52.184;5.406;2022-12-26T09:56:51;11.90;99.90
16643;DHT22;8435;52.184;5.406;2022-12-26T09:59:20;11.80;99.90
16643;DHT22;8435;52.184;5.406;2022-12-26T10:01:50;11.80;99.90
16643;DHT22;8435;52.184;5.406;2022-12-26T10:04:22;11.70;99.90
16643;DHT22;8435;52.184;5.406;2022-12-26T10:06:56;11.60;99.90
16643;DHT22;8435;52.184;5.406;2022-12-26T10:09:51;11.50;99.90
16643;DHT22;8435;52.184;5.406;2022-12-26T10:12:35;11.50;99.90
16643;DHT22;8435;52.184;5.406;2022-12-26T10:15:10;11.40;99.90
16643;DHT22;8435;52.184;5.406;2022-12-26T10:17:48;11.30;99.90
16643;DHT22;8435;52.184;5.406;2022-12-26T10:20:23;11.30;99.90
16643;DHT22;8435;52.184;5.406;2022-12-26T10:25:46;11.20;99.90
16643;DHT22;8435;52.184;5.406;2022-12-26T10:28:17;11.10;99.90
16643;DHT22;8435;52.184;5.406;2022-12-26T10:30:49;11.10;99.90
16643;DHT22;8435;52.184;5.406;2022-12-26T10:33:23;11.10;99.90
16643;DHT22;8435;52.184;5.406;2022-12-26T10:35:53;11.00;99.90
16643;DHT22;8435;52.184;5.406;2022-12-26T10:38:27;10.90;99.90
16643;DHT22;8435;52.184;5.406;2022-12-26T10:40:57;10.90;99.90
16643;DHT22;8435;52.184;5.406;2022-12-26T10:43:27;10.80;99.90
16643;DHT22;8435;52.184;5.406;2022-12-26T10:46:14;10.80;99.90
16643;DHT22;8435;52.184;5.406;2022-12-26T10:48:47;10.80;99.90
16643;DHT22;8435;52.184;5.406;2022-12-26T10:51:15;10.80;99.90
16643;DHT22;8435;52.184;5.406;2022-12-26T10:53:46;10.80;99.90
16643;DHT22;8435;52.184;5.406;2022-12-26T10:56:14;10.80;99.90
16643;DHT22;8435;52.184;5.406;2022-12-26T10:58:43;10.80;99.90
16643;DHT22;8435;52.184;5.406;2022-12-26T11:01:30;10.80;99.90
16643;DHT22;8435;52.184;5.406;2022-12-26T11:04:00;10.80;99.90
16643;DHT22;8435;52.184;5.406;2022-12-26T11:06:30;10.90;99.90
16643;DHT22;8435;52.184;5.406;2022-12-26T11:09:01;10.80;99.90
16643;DHT22;8435;52.184;5.406;2022-12-26T11:11:32;10.90;99.90
16643;DHT22;8435;52.184;5.406;2022-12-26T11:14:29;10.90;99.90
16643;DHT22;8435;52.184;5.406;2022-12-26T11:17:01;10.90;99.90
16643;DHT22;8435;52.184;5.406;2022-12-26T11:19:33;10.80;99.90
16643;DHT22;8435;52.184;5.406;2022-12-26T11:22:21;10.80;99.90
16643;DHT22;8435;52.184;5.406;2022-12-26T11:25:11;10.80;99.90
16643;DHT22;8435;52.184;5.406;2022-12-26T11:27:39;10.80;99.90
16643;DHT22;8435;52.184;5.406;2022-12-26T11:30:22;10.70;99.90
16643;DHT22;8435;52.184;5.406;2022-12-26T11:33:02;10.70;99.90
16643;DHT22;8435;52.184;5.406;2022-12-26T11:35:32;10.70;99.90
16643;DHT22;8435;52.184;5.406;2022-12-26T11:38:03;10.60;99.90
16643;DHT22;8435;52.184;5.406;2022-12-26T11:40:36;10.70;99.90
16643;DHT22;8435;52.184;5.406;2022-12-26T11:43:06;10.60;99.90
16643;DHT22;8435;52.184;5.406;2022-12-26T11:45:42;10.70;99.90
16643;DHT22;8435;52.184;5.406;2022-12-26T11:48:23;10.70;99.90
16643;DHT22;8435;52.184;5.406;2022-12-26T11:50:52;10.70;99.90
16643;DHT22;8435;52.184;5.406;2022-12-26T11:53:21;10.70;99.90
16643;DHT22;8435;52.184;5.406;2022-12-26T11:55:57;10.70;99.90
16643;DHT22;8435;52.184;5.406;2022-12-26T11:58:28;10.70;99.90
16643;DHT22;8435;52.184;5.406;2022-12-26T12:01:06;10.80;99.90
16643;DHT22;8435;52.184;5.406;2022-12-26T12:03:36;10.80;99.90
16643;DHT22;8435;52.184;5.406;2022-12-26T12:06:18;10.80;99.90
16643;DHT22;8435;52.184;5.406;2022-12-26T12:08:53;10.90;99.90
16643;DHT22;8435;52.184;5.406;2022-12-26T12:11:29;11.00;99.90
16643;DHT22;8435;52.184;5.406;2022-12-26T12:14:10;11.00;99.90
16643;DHT22;8435;52.184;5.406;2022-12-26T12:16:53;11.00;99.90
16643;DHT22;8435;52.184;5.406;2022-12-26T12:19:37;11.00;99.90
16643;DHT22;8435;52.184;5.406;2022-12-26T12:25:12;10.90;99.90
16643;DHT22;8435;52.184;5.406;2022-12-26T12:27:50;10.80;99.90
16643;DHT22;8435;52.184;5.406;2022-12-26T12:30:20;10.70;99.90
16643;DHT22;8435;52.184;5.406;2022-12-26T12:33:06;10.70;99.90
16643;DHT22;8435;52.184;5.406;2022-12-26T12:35:47;10.60;99.90
16643;DHT22;8435;52.184;5.406;2022-12-26T12:38:27;10.60;99.90
16643;DHT22;8435;52.184;5.406;2022-12-26T12:41:08;10.50;99.90
16643;DHT22;8435;52.184;5.406;2022-12-26T12:43:42;10.50;99.90
16643;DHT22;8435;52.184;5.406;2022-12-26T12:46:16;10.40;99.90
16643;DHT22;8435;52.184;5.406;2022-12-26T12:48:56;10.40;99.90
16643;DHT22;8435;52.184;5.406;2022-12-26T12:51:32;10.40;99.90
16643;DHT22;8435;52.184;5.406;2022-12-26T12:54:35;10.40;99.90
16643;DHT22;8435;52.184;5.406;2022-12-26T12:57:11;10.40;99.90
16643;DHT22;8435;52.184;5.406;2022-12-26T12:59:58;10.40;99.90
16643;DHT22;8435;52.184;5.406;2022-12-26T13:02:31;10.30;99.90
16643;DHT22;8435;52.184;5.406;2022-12-26T13:05:05;10.40;99.90
16643;DHT22;8435;52.184;5.406;2022-12-26T13:07:39;10.30;99.90
16643;DHT22;8435;52.184;5.406;2022-12-26T13:10:16;10.30;99.90
16643;DHT22;8435;52.184;5.406;2022-12-26T13:12:46;10.20;99.90
16643;DHT22;8435;52.184;5.406;2022-12-26T13:15:26;10.20;99.90
16643;DHT22;8435;52.184;5.406;2022-12-26T13:17:59;10.20;99.90
16643;DHT22;8435;52.184;5.406;2022-12-26T13:20:36;10.10;99.90
16643;DHT22;8435;52.184;5.406;2022-12-26T13:23:05;10.10;99.90
16643;DHT22;8435;52.184;5.406;2022-12-26T13:26:04;10.00;99.90
16643;DHT22;8435;52.184;5.406;2022-12-26T13:28:36;9.90;99.90
16643;DHT22;8435;52.184;5.406;2022-12-26T13:31:05;9.90;99.90
16643;DHT22;8435;52.184;5.406;2022-12-26T13:33:34;9.90;99.90
16643;DHT22;8435;52.184;5.406;2022-12-26T13:36:03;9.90;99.90
16643;DHT22;8435;52.184;5.406;2022-12-26T13:41:35;9.90;99.90
16643;DHT22;8435;52.184;5.406;2022-12-26T13:44:26;9.90;99.90
16643;DHT22;8435;52.184;5.406;2022-12-26T13:46:54;9.90;99.90
16643;DHT22;8435;52.184;5.406;2022-12-26T13:49:27;9.90;99.90
16643;DHT22;8435;52.184;5.406;2022-12-26T13:51:58;9.90;99.90
16643;DHT22;8435;52.184;5.406;2022-12-26T13:55:18;9.90;99.90
16643;DHT22;8435;52.184;5.406;2022-12-26T14:00:58;9.90;99.90
16643;DHT22;8435;52.184;5.406;2022-12-26T14:03:45;9.90;99.90
16643;DHT22;8435;52.184;5.406;2022-12-26T14:06:42;9.90;99.90
16643;DHT22;8435;52.184;5.406;2022-12-26T14:09:36;9.90;99.90
16643;DHT22;8435;52.184;5.406;2022-12-26T14:15:13;9.80;99.90
16643;DHT22;8435;52.184;5.406;2022-12-26T14:17:48;9.80;99.90
16643;DHT22;8435;52.184;5.406;2022-12-26T14:20:28;9.80;99.90
16643;DHT22;8435;52.184;5.406;2022-12-26T14:23:03;9.80;99.90
16643;DHT22;8435;52.184;5.406;2022-12-26T14:25:44;9.70;99.90
16643;DHT22;8435;52.184;5.406;2022-12-26T14:28:19;9.80;99.90
16643;DHT22;8435;52.184;5.406;2022-12-26T14:30:58;9.80;99.90
16643;DHT22;8435;52.184;5.406;2022-12-26T14:33:31;9.80;99.90
16643;DHT22;8435;52.184;5.406;2022-12-26T14:36:18;9.80;99.90
16643;DHT22;8435;52.184;5.406;2022-12-26T14:38:53;9.80;99.90
16643;DHT22;8435;52.184;5.406;2022-12-26T14:41:25;9.80;99.90
16643;DHT22;8435;52.184;5.406;2022-12-26T14:44:17;9.80;99.90
16643;DHT22;8435;52.184;5.406;2022-12-26T14:47:08;9.80;99.90
16643;DHT22;8435;52.184;5.406;2022-12-26T14:49:40;9.80;99.90
16643;DHT22;8435;52.184;5.406;2022-12-26T14:52:31;9.80;99.90
16643;DHT22;8435;52.184;5.406;2022-12-26T14:54:58;9.70;99.60
16643;DHT22;8435;52.184;5.406;2022-12-26T14:57:46;9.70;99.90
16643;DHT22;8435;52.184;5.406;2022-12-26T15:03:38;9.60;99.90
16643;DHT22;8435;52.184;5.406;2022-12-26T15:06:37;9.60;99.70
16643;DHT22;8435;52.184;5.406;2022-12-26T15:09:26;9.60;99.50
16643;DHT22;8435;52.184;5.406;2022-12-26T15:12:20;9.50;99.70
16643;DHT22;8435;52.184;5.406;2022-12-26T15:15:10;9.40;99.50
16643;DHT22;8435;52.184;5.406;2022-12-26T15:17:45;9.40;99.50
16643;DHT22;8435;52.184;5.406;2022-12-26T15:20:36;9.30;99.90
16643;DHT22;8435;52.184;5.406;2022-12-26T15:23:36;9.30;99.60
16643;DHT22;8435;52.184;5.406;2022-12-26T15:26:23;9.20;99.50
16643;DHT22;8435;52.184;5.406;2022-12-26T15:29:08;9.20;99.80
16643;DHT22;8435;52.184;5.406;2022-12-26T15:31:58;9.10;99.90
16643;DHT22;8435;52.184;5.406;2022-12-26T15:34:41;9.00;99.90
16643;DHT22;8435;52.184;5.406;2022-12-26T15:40:07;8.90;99.90
16643;DHT22;8435;52.184;5.406;2022-12-26T15:42:47;8.80;99.90
16643;DHT22;8435;52.184;5.406;2022-12-26T15:45:27;8.80;99.90
16643;DHT22;8435;52.184;5.406;2022-12-26T15:48:01;8.80;99.90
16643;DHT22;8435;52.184;5.406;2022-12-26T15:50:31;8.70;99.90
16643;DHT22;8435;52.184;5.406;2022-12-26T15:53:10;8.70;99.90
16643;DHT22;8435;52.184;5.406;2022-12-26T15:56:01;8.60;99.90
16643;DHT22;8435;52.184;5.406;2022-12-26T15:58:43;8.60;99.90
16643;DHT22;8435;52.184;5.406;2022-12-26T16:01:37;8.60;99.90
16643;DHT22;8435;52.184;5.406;2022-12-26T16:04:09;8.60;99.90
16643;DHT22;8435;52.184;5.406;2022-12-26T16:06:59;8.50;99.90
16643;DHT22;8435;52.184;5.406;2022-12-26T16:09:41;8.50;99.90
16643;DHT22;8435;52.184;5.406;2022-12-26T16:12:29;8.50;99.90
16643;DHT22;8435;52.184;5.406;2022-12-26T16:15:03;8.40;99.90
16643;DHT22;8435;52.184;5.406;2022-12-26T16:17:42;8.30;99.90
16643;DHT22;8435;52.184;5.406;2022-12-26T16:20:18;8.30;99.90
16643;DHT22;8435;52.184;5.406;2022-12-26T16:23:09;8.20;99.90
16643;DHT22;8435;52.184;5.406;2022-12-26T16:25:37;8.20;99.90
16643;DHT22;8435;52.184;5.406;2022-12-26T16:28:04;8.20;99.90
16643;DHT22;8435;52.184;5.406;2022-12-26T16:30:35;8.10;99.90
16643;DHT22;8435;52.184;5.406;2022-12-26T16:33:02;8.00;99.90
16643;DHT22;8435;52.184;5.406;2022-12-26T16:35:33;8.00;99.90
16643;DHT22;8435;52.184;5.406;2022-12-26T16:38:02;8.00;99.90
16643;DHT22;8435;52.184;5.406;2022-12-26T16:40:31;7.90;99.90
16643;DHT22;8435;52.184;5.406;2022-12-26T16:43:02;7.90;99.90
16643;DHT22;8435;52.184;5.406;2022-12-26T16:45:31;7.80;99.90
16643;DHT22;8435;52.184;5.406;2022-12-26T16:47:58;7.80;99.90
16643;DHT22;8435;52.184;5.406;2022-12-26T16:50:27;7.80;99.90
16643;DHT22;8435;52.184;5.406;2022-12-26T16:53:12;7.70;99.90
16643;DHT22;8435;52.184;5.406;2022-12-26T16:55:43;7.70;99.90
16643;DHT22;8435;52.184;5.406;2022-12-26T16:58:19;7.70;99.90
16643;DHT22;8435;52.184;5.406;2022-12-26T17:00:59;7.60;99.90
16643;DHT22;8435;52.184;5.406;2022-12-26T17:03:33;7.60;99.90
16643;DHT22;8435;52.184;5.406;2022-12-26T17:06:05;7.60;99.90